Ontonagon, MI (49953)

11:58 PM EDT on September 30, 2014 (GMT -0400)
Mountain View Lodges, Silver City, MI / Porcupine Mountains Area | Change Station
CLOSE
Current Station
Personal Weather Station
Location: Ontonagon, MI
Elevation: 587 ft
Nearby Weather Stations

Elev 587 ft 46.83 °N, 89.58 °W | Updated 7 minutes ago

Partly Cloudy
Partly Cloudy
38.3 °F
Feels Like 38 °F
N
0.0
Wind Variable Wind from NW
Gusts 0.0 mph

Today
High -- | Low -- °F
--% Chance of Precip.
Yesterday
High -- | Low -- °F
Precip. -- in
7:54 AM 7:38 PM
Waxing Crescent, 43% visible
Pressure 30.22 in
Visibility 10.0 miles
Clouds Overcast 1200 ft
Windchill 38 °F
Dew Point 37 °F
Humidity 94%
Rainfall 0.00 in
Snow Depth Not available.
UV 0 out of 12
Pollen 1.20 out of 12
Air Quality Not available.
Flu Activity Not available.
METAR KCMX 300153Z AUTO 04008G18KT 10SM OVC012 04/02 A3019 RMK AO2 SLP232 T00440017

More Conditions Fewer Conditions

Pressure 30.22 in
Visibility 10.0 miles
Clouds Overcast 1200 ft
Windchill 38 °F
Dew Point 37 °F
Humidity 94%
Rainfall 0.00 in
Snow Depth Not available.
UV 0 out of 12
Pollen 1.20 out of 12
Air Quality Not available.
Flu Activity Not available.
METAR KCMX 300153Z AUTO 04008G18KT 10SM OVC012 04/02 A3019 RMK AO2 SLP232 T00440017

More Conditions Fewer Conditions

10-Day Weather Forecast

Almanac

Astronomy

Sep. 30, 2014 Rise Set
Actual Time 7:54 AM EDT 7:38 PM EDT
Civil Twilight 7:24 AM EDT 8:09 PM EDT
Nautical Twilight 6:49 AM EDT 8:44 PM EDT
Astronomical Twilight 6:13 AM EDT 9:20 PM EDT
Moon 2:19 PM EDT (9/30) 11:52 PM EDT (9/30)
Length of Visible Light 12h 44m
Length of Day
11h 44m
Tomorrow will be 3m 19s shorter.
Waxing Crescent, 43% of the Moon is Illuminated
Today
Waxing Crescent
Oct 1
First Quarter
Oct 8
Full
Oct 15
Last Quarter
Oct 23
New

Today's Extremes

State Highs State Lows

Community

WunderPhotos

Upload Photos

1,757,829 photos uploaded!

Nearby

Snow Depth

Station Depth Elevation
No new snow has been reported.

Earthquake Activity

City Distance Mag. Time & Date
No recent earthquake activity has been reported nearby.
Minimum magnitude displayed is 2.5.

Coastal Water Temperatures

Place Temperature
No Stations Reporting

Nearby Weather Stations